EST,Max TemperatureF,Mean TemperatureF,Min TemperatureF,Max Dew PointF,MeanDew PointF,Min DewpointF,Max Humidity, Mean Humidity, Min Humidity, Max Sea Level PressureIn, Mean Sea Level PressureIn, Min Sea Level PressureIn, Max VisibilityMiles, Mean VisibilityMiles, Min VisibilityMiles, Max Wind SpeedMPH, Mean Wind SpeedMPH, Max Gust SpeedMPH,PrecipitationIn, CloudCover, Events, WindDirDegrees
2013-1-1,27,22,17,20,13,8,76,66,53,30.11,30.05,29.99,10,10,10,14,7,17,0.00,5,,321
2013-1-2,25,20,14,19,15,9,84,75,69,30.15,30.10,30.05,10,10,10,14,9,18,0.00,7,Snow,256
2013-1-3,28,20,11,25,16,4,90,77,65,30.15,30.09,30.05,10,8,2,13,7,17,0.00,7,Snow,236
2013-1-4,27,23,19,22,18,12,87,76,62,30.17,30.11,30.06,10,10,7,21,12,26,0.00,2,,251
2013-1-5,34,28,21,31,24,19,96,82,62,30.22,30.13,30.00,10,7,1,14,8,20,0.00,4,Snow,219
2013-1-6,35,32,29,32,29,25,93,87,75,30.25,30.00,29.89,10,7,2,16,10,25,0.00,8,Snow,256
2013-1-7,34,30,25,25,23,22,93,75,61,30.35,30.25,30.12,10,9,3,21,8,26,0.00,2,,215
2013-1-8,38,30,22,28,24,21,94,79,58,30.22,30.17,30.13,10,7,2,9,6,,0.00,0,,190
2013-1-9,45,38,30,33,28,22,86,67,40,30.44,30.18,30.04,10,9,7,25,12,33,0.00,1,Rain,249
2013-1-10,39,31,23,34,28,22,96,82,62,30.52,30.40,30.10,10,9,2,18,4,22,0.00,2,Rain-Snow,121
2013-1-11,57,46,35,53,44,34,99,92,81,30.08,29.87,29.77,10,7,0,16,11,23,0.00,6,Fog-Rain-Snow,179
2013-1-12,60,53,46,50,48,46,98,85,64,29.95,29.88,29.79,10,9,2,15,8,18,0.00,1,Rain,213
2013-1-13,43,37,27,45,35,24,98,96,84,30.04,29.87,29.74,10,5,1,22,9,30,0.00,8,Rain-Snow,324
2013-1-14,26,22,17,24,17,15,92,81,72,30.38,30.29,30.05,10,10,10,20,12,28,0.00,6,Snow,298
2013-1-15,28,20,13,22,17,12,93,81,64,30.37,30.29,30.10,10,10,7,7,1,,0.00,1,,117
2013-1-16,35,28,20,27,20,16,93,71,45,30.09,29.92,29.81,10,10,7,21,5,26,0.00,4,,247
2013-1-17,37,28,20,30,21,8,91,70,51,30.28,30.14,29.96,10,10,3,24,12,28,0.00,3,,301
2013-1-18,37,27,19,21,17,14,88,65,52,30.37,30.22,29.96,10,10,7,20,9,26,0.00,4,Snow,217
2013-1-19,48,42,35,34,28,21,70,60,50,29.96,29.84,29.64,10,10,10,22,14,33,0.00,1,,227
2013-1-20,42,30,17,34,11,5,80,64,48,30.15,30.02,29.63,10,9,1,33,20,48,0.00,7,Snow,287
2013-1-21,18,12,7,14,5,-3,86,70,51,30.09,30.00,29.93,10,7,0,23,11,32,0.00,7,Snow,269
2013-1-22,9,4,-2,4,-3,-9,79,70,58,30.22,30.17,30.07,10,7,1,16,8,21,0.00,7,Snow,281
2013-1-23,16,8,0,13,4,-4,88,75,59,30.22,30.12,30.00,10,6,0,16,5,21,0.00,8,Snow,234
2013-1-24,17,10,3,8,0,-5,84,64,37,30.53,30.40,30.08,10,10,10,15,7,22,0.00,0,,343
2013-1-25,22,18,14,20,12,0,93,78,53,30.41,30.10,29.95,10,5,1,10,5,,0.00,8,Snow,158
2013-1-26,25,20,14,21,15,7,93,77,53,30.40,30.23,30.00,10,8,2,14,5,18,0.00,5,Snow,305
2013-1-27,31,22,15,30,17,11,93,79,62,30.41,30.31,30.06,10,8,2,17,6,25,0.00,5,Snow,151
2013-1-28,48,40,31,49,40,30,100,99,93,30.05,29.93,29.86,4,1,0,13,8,20,0.00,8,Fog-Rain-Snow,215
2013-1-29,56,47,38,56,50,38,100,99,96,29.98,29.76,29.52,7,2,0,18,9,28,0.00,8,Fog-Rain,176
2013-1-30,59,40,29,52,42,23,100,92,77,29.33,29.22,29.16,10,9,2,28,13,34,0.00,8,Rain-Snow,236
2013-1-31,29,22,14,24,14,8,87,77,64,29.86,29.65,29.34,10,6,0,28,19,38,0.00,8,Snow,266